createdAt,value
2019-01-25T00:00:44.921Z,38.43
2019-01-25T00:03:25.668Z,37.40
2019-01-25T00:05:54.119Z,36.50
2019-01-25T00:08:22.582Z,37.00
2019-01-25T00:10:51.040Z,38.17
2019-01-25T00:13:19.575Z,37.20
2019-01-25T00:16:07.440Z,38.33
2019-01-25T00:18:35.962Z,36.53
2019-01-25T00:21:05.047Z,36.73
2019-01-25T00:23:33.566Z,36.57
2019-01-25T00:26:02.046Z,36.07
2019-01-25T00:28:30.500Z,39.10
2019-01-25T00:30:59.050Z,38.53
2019-01-25T00:33:27.499Z,37.30
2019-01-25T00:35:55.959Z,38.07
2019-01-25T00:38:24.479Z,38.20
2019-01-25T00:40:52.948Z,39.30
2019-01-25T00:43:21.400Z,37.67
2019-01-25T00:45:49.871Z,39.80
2019-01-25T00:48:18.348Z,37.17
2019-01-25T00:50:47.149Z,37.33
2019-01-25T00:53:15.672Z,38.23
2019-01-25T00:55:44.268Z,39.00
2019-01-25T00:58:12.719Z,39.70
2019-01-25T01:00:41.318Z,36.40
2019-01-25T01:03:09.861Z,37.10
2019-01-25T01:05:38.386Z,37.90
2019-01-25T01:08:06.987Z,37.00
2019-01-25T01:10:35.583Z,38.43
2019-01-25T01:13:04.428Z,38.30
2019-01-25T01:15:32.870Z,38.83
2019-01-25T01:18:01.343Z,39.07
2019-01-25T01:20:29.853Z,38.07
2019-01-25T01:23:00.547Z,38.23
2019-01-25T01:25:29.132Z,38.00
2019-01-25T01:27:57.612Z,39.40
2019-01-25T01:30:26.079Z,38.50
2019-01-25T01:32:55.163Z,38.00
2019-01-25T01:35:23.701Z,37.77
2019-01-25T01:37:52.640Z,39.03
2019-01-25T01:40:22.937Z,38.77
2019-01-25T01:42:52.028Z,39.47
2019-01-25T01:45:20.627Z,37.17
2019-01-25T01:47:49.139Z,39.53
2019-01-25T01:50:18.647Z,34.90
2019-01-25T01:52:48.227Z,37.20
2019-01-25T01:55:16.806Z,37.60
2019-01-25T01:57:45.432Z,36.10
2019-01-25T02:00:19.589Z,39.23
2019-01-25T02:03:07.367Z,38.30
2019-01-25T02:05:35.909Z,39.00
2019-01-25T02:08:04.847Z,37.57
2019-01-25T02:10:33.302Z,40.23
2019-01-25T02:13:01.767Z,40.00
2019-01-25T02:15:30.215Z,38.37
2019-01-25T02:17:58.743Z,38.60
2019-01-25T02:20:28.623Z,37.33
2019-01-25T02:22:57.240Z,37.20
2019-01-25T02:25:25.759Z,38.03
2019-01-25T02:28:06.387Z,36.27
2019-01-25T02:30:34.910Z,36.23
2019-01-25T02:33:03.385Z,38.30
2019-01-25T02:35:31.896Z,37.10
2019-01-25T02:38:00.427Z,39.30
2019-01-25T02:40:28.878Z,39.63
2019-01-25T02:42:57.348Z,37.10
2019-01-25T02:45:25.805Z,39.80
2019-01-25T02:47:54.419Z,38.97
2019-01-25T02:50:22.986Z,36.40
2019-01-25T02:52:51.511Z,36.80
2019-01-25T02:55:20.044Z,39.87
2019-01-25T02:57:48.667Z,39.37
2019-01-25T03:00:22.854Z,38.10
2019-01-25T03:02:52.094Z,36.17
2019-01-25T03:05:22.296Z,39.87
2019-01-25T03:07:51.461Z,37.53
2019-01-25T03:10:28.657Z,38.30
2019-01-25T03:12:52.685Z,37.87
2019-01-25T03:15:23.979Z,37.90
2019-01-25T03:17:52.691Z,40.70
2019-01-25T03:20:21.395Z,38.60
2019-01-25T03:22:49.975Z,36.00
2019-01-25T03:25:26.019Z,36.43
2019-01-25T03:27:54.649Z,40.37
2019-01-25T03:30:25.503Z,41.27
2019-01-25T03:32:54.213Z,37.97
2019-01-25T03:35:24.615Z,37.93
2019-01-25T03:37:53.204Z,38.00
2019-01-25T03:40:24.464Z,36.77
2019-01-25T03:42:53.255Z,41.80
2019-01-25T03:45:22.756Z,37.07
2019-01-25T03:47:51.557Z,39.20
2019-01-25T03:50:22.668Z,39.73
2019-01-25T03:52:51.206Z,39.77
2019-01-25T03:55:19.789Z,38.47
2019-01-25T03:57:48.501Z,37.90
2019-01-25T04:00:25.262Z,37.93
2019-01-25T04:03:13.055Z,37.63
2019-01-25T04:05:41.504Z,41.10
2019-01-25T04:08:10.054Z,40.60
2019-01-25T04:10:38.672Z,39.70
2019-01-25T04:13:07.146Z,39.73
2019-01-25T04:15:35.724Z,41.70
2019-01-25T04:18:04.818Z,40.00
2019-01-25T04:20:33.396Z,39.80
2019-01-25T04:23:01.836Z,39.63
2019-01-25T04:25:30.368Z,38.77
2019-01-25T04:27:58.882Z,41.07
2019-01-25T04:30:29.287Z,40.77
2019-01-25T04:32:57.884Z,40.73
2019-01-25T04:35:26.587Z,41.40
2019-01-25T04:37:55.097Z,41.30
2019-01-25T04:40:23.680Z,41.63
2019-01-25T04:42:52.368Z,40.67
2019-01-25T04:45:22.358Z,41.20
2019-01-25T04:47:51.552Z,39.23
2019-01-25T04:50:24.957Z,39.40
2019-01-25T04:52:54.024Z,38.90
2019-01-25T04:55:24.503Z,38.37
2019-01-25T04:57:53.031Z,38.87
2019-01-25T05:00:23.308Z,37.43
2019-01-25T05:03:00.139Z,40.10
2019-01-25T05:05:29.340Z,39.40
2019-01-25T05:08:07.252Z,40.03
2019-01-25T05:10:36.680Z,39.37
2019-01-25T05:13:05.372Z,39.27
2019-01-25T05:15:33.896Z,41.20
2019-01-25T05:18:02.349Z,38.43
2019-01-25T05:20:30.977Z,38.20
2019-01-25T05:23:01.956Z,39.57
2019-01-25T05:25:30.608Z,38.50
2019-01-25T05:28:09.613Z,41.63
2019-01-25T05:30:57.891Z,43.03
2019-01-25T05:33:26.431Z,42.33
2019-01-25T05:35:55.047Z,39.60
2019-01-25T05:38:23.515Z,41.70
2019-01-25T05:40:52.028Z,40.87
2019-01-25T05:43:20.508Z,40.13
2019-01-25T05:45:48.976Z,41.37
2019-01-25T05:48:17.401Z,41.00
2019-01-25T05:50:45.880Z,38.60
2019-01-25T05:53:14.401Z,39.40
2019-01-25T05:55:42.991Z,41.60
2019-01-25T05:58:11.503Z,39.87
2019-01-25T06:00:44.720Z,41.17
2019-01-25T06:03:14.999Z,42.70
2019-01-25T06:05:44.189Z,40.47
2019-01-25T06:08:32.364Z,39.77
2019-01-25T06:11:05.931Z,38.23
2019-01-25T06:13:34.389Z,42.30
2019-01-25T06:16:03.388Z,40.33
2019-01-25T06:18:31.831Z,39.70
2019-01-25T06:21:00.538Z,39.70
2019-01-25T06:23:28.992Z,41.20
2019-01-25T06:25:58.991Z,37.53
2019-01-25T06:28:27.610Z,40.07
2019-01-25T06:30:56.070Z,39.70
2019-01-25T06:33:25.587Z,39.10
2019-01-25T06:35:54.157Z,41.50
2019-01-25T06:38:22.751Z,39.83
2019-01-25T06:40:51.198Z,40.07
2019-01-25T06:43:19.719Z,39.70
2019-01-25T06:45:49.820Z,40.73
2019-01-25T06:48:18.595Z,40.00
2019-01-25T06:50:47.056Z,42.07
2019-01-25T06:53:15.500Z,41.00
2019-01-25T06:55:43.955Z,41.70
2019-01-25T06:58:24.162Z,41.10
2019-01-25T07:00:56.985Z,42.07
2019-01-25T07:03:25.490Z,41.63
2019-01-25T07:05:53.964Z,40.80
2019-01-25T07:08:22.408Z,41.70
2019-01-25T07:10:50.872Z,42.70
2019-01-25T07:13:19.321Z,42.50
2019-01-25T07:15:47.764Z,42.40
2019-01-25T07:18:16.291Z,41.00
2019-01-25T07:20:44.731Z,41.97
2019-01-25T07:23:13.192Z,44.90
2019-01-25T07:26:00.971Z,40.97
2019-01-25T07:28:29.429Z,40.80
2019-01-25T07:30:57.865Z,40.17
2019-01-25T07:33:26.324Z,41.97
2019-01-25T07:35:54.857Z,42.43
2019-01-25T07:38:23.388Z,43.50
2019-01-25T07:40:52.024Z,43.10
2019-01-25T07:43:20.653Z,43.60
2019-01-25T07:45:49.261Z,40.83
2019-01-25T07:48:17.753Z,42.17
2019-01-25T07:50:46.290Z,41.00
2019-01-25T07:53:14.903Z,41.00
2019-01-25T07:55:43.413Z,42.03
2019-01-25T07:58:11.954Z,45.50
2019-01-25T08:00:40.785Z,41.50
2019-01-25T08:03:09.362Z,43.83
2019-01-25T08:05:37.852Z,42.30
2019-01-25T08:08:06.325Z,46.33
2019-01-25T08:10:34.785Z,42.20
2019-01-25T08:13:03.220Z,42.77
2019-01-25T08:15:31.817Z,46.67
2019-01-25T08:18:00.313Z,43.20
2019-01-25T08:20:28.923Z,42.07
2019-01-25T08:22:57.422Z,41.30
2019-01-25T08:25:25.965Z,41.43
2019-01-25T08:27:54.471Z,43.27
2019-01-25T08:30:24.655Z,43.20
2019-01-25T08:32:53.222Z,44.60
2019-01-25T08:35:22.280Z,45.23
2019-01-25T08:37:50.995Z,43.77
2019-01-25T08:40:19.811Z,42.67
2019-01-25T08:42:48.560Z,43.53
2019-01-25T08:45:20.115Z,43.20
2019-01-25T08:47:48.680Z,44.40
2019-01-25T08:50:19.908Z,43.97
2019-01-25T08:52:48.525Z,44.97
2019-01-25T08:55:17.147Z,42.07
2019-01-25T08:57:45.856Z,44.43
2019-01-25T09:00:17.175Z,42.13
2019-01-25T09:02:45.771Z,43.07
2019-01-25T09:05:15.746Z,43.83
2019-01-25T09:08:03.532Z,47.03
2019-01-25T09:10:31.968Z,48.67
2019-01-25T09:13:00.436Z,45.20
2019-01-25T09:15:31.682Z,46.20
2019-01-25T09:18:00.321Z,45.13
2019-01-25T09:20:28.760Z,45.40
2019-01-25T09:22:57.218Z,47.87
2019-01-25T09:25:25.727Z,44.33
2019-01-25T09:27:54.193Z,45.23
2019-01-25T09:30:27.731Z,43.90
2019-01-25T09:32:56.333Z,45.70
2019-01-25T09:35:24.851Z,45.63
2019-01-25T09:37:53.750Z,45.73
2019-01-25T09:40:24.913Z,42.03
2019-01-25T09:42:53.502Z,44.23
2019-01-25T09:45:22.381Z,45.57
2019-01-25T09:47:52.091Z,46.23
2019-01-25T09:50:22.090Z,45.13
2019-01-25T09:52:50.675Z,46.53
2019-01-25T09:55:24.664Z,47.17
2019-01-25T09:57:56.354Z,45.47
2019-01-25T10:00:51.408Z,44.50
2019-01-25T10:03:20.840Z,45.67
2019-01-25T10:05:49.357Z,42.47
2019-01-25T10:08:17.876Z,42.97
2019-01-25T10:10:47.311Z,43.57
2019-01-25T10:13:35.103Z,42.00
2019-01-25T10:16:04.063Z,38.97
2019-01-25T10:18:32.586Z,43.43
2019-01-25T10:21:01.109Z,42.70
2019-01-25T10:23:29.620Z,42.37
2019-01-25T10:25:58.162Z,36.17
2019-01-25T10:28:26.672Z,39.03
2019-01-25T10:30:55.200Z,35.97
2019-01-25T10:33:23.707Z,37.37
2019-01-25T10:35:52.287Z,35.27
2019-01-25T10:38:20.801Z,33.83
2019-01-25T10:40:49.258Z,36.97
2019-01-25T10:43:17.715Z,36.00
2019-01-25T10:45:46.246Z,38.13
2019-01-25T10:48:14.695Z,39.20
2019-01-25T10:50:43.157Z,37.67
2019-01-25T10:53:11.624Z,36.80
2019-01-25T10:55:40.080Z,39.80
2019-01-25T10:58:09.056Z,36.93
2019-01-25T11:00:37.495Z,38.40
2019-01-25T11:03:06.104Z,35.13
2019-01-25T11:05:34.697Z,38.50
2019-01-25T11:08:03.256Z,34.97
2019-01-25T11:10:32.307Z,32.53
2019-01-25T11:13:01.695Z,29.30
2019-01-25T11:15:30.203Z,27.03
2019-01-25T11:17:58.666Z,25.00
2019-01-25T11:20:27.182Z,22.37
2019-01-25T11:22:55.635Z,21.47
2019-01-25T11:25:36.301Z,22.13
2019-01-25T11:28:05.220Z,20.10
2019-01-25T11:30:33.868Z,17.97
2019-01-25T11:33:02.332Z,17.90
2019-01-25T11:35:30.844Z,18.27
2019-01-25T11:37:59.448Z,16.73
2019-01-25T11:40:30.423Z,16.80
2019-01-25T11:42:58.995Z,16.03
2019-01-25T11:45:27.527Z,14.97
2019-01-25T11:47:56.034Z,11.67
2019-01-25T11:50:24.489Z,16.23
2019-01-25T11:52:52.928Z,12.63
2019-01-25T11:55:40.882Z,12.27
2019-01-25T11:58:09.387Z,12.73
2019-01-25T12:00:39.573Z,14.60
2019-01-25T12:03:08.003Z,13.27
2019-01-25T12:05:36.484Z,12.93
2019-01-25T12:08:05.620Z,14.30
2019-01-25T12:10:34.166Z,24.73
2019-01-25T12:13:02.609Z,13.83
2019-01-25T12:15:31.210Z,13.87
2019-01-25T12:17:59.724Z,13.23
2019-01-25T12:20:30.689Z,14.87
2019-01-25T12:22:59.395Z,13.97
2019-01-25T12:25:27.934Z,13.57
2019-01-25T12:27:56.544Z,151.47
2019-01-25T12:30:27.548Z,28.40
2019-01-25T12:32:56.291Z,13.87
2019-01-25T12:35:25.875Z,13.40
2019-01-25T12:37:54.401Z,14.27
2019-01-25T12:40:22.911Z,13.57
2019-01-25T12:42:51.438Z,13.33
2019-01-25T12:45:22.788Z,13.40
2019-01-25T12:47:51.556Z,14.00
2019-01-25T12:50:37.649Z,16.57
2019-01-25T12:53:25.468Z,15.50
2019-01-25T12:55:53.912Z,16.50
2019-01-25T12:58:22.587Z,14.63
2019-01-25T13:00:51.644Z,16.80
2019-01-25T13:03:20.259Z,19.53
2019-01-25T13:05:48.800Z,14.40
2019-01-25T13:08:17.319Z,16.07
2019-01-25T13:10:45.899Z,18.77
2019-01-25T13:13:14.351Z,20.07
2019-01-25T13:15:42.864Z,19.57
2019-01-25T13:18:11.403Z,19.33
2019-01-25T13:20:39.941Z,20.40
2019-01-25T13:23:08.454Z,21.20
2019-01-25T13:25:36.935Z,22.60
2019-01-25T13:28:05.448Z,24.53
2019-01-25T13:30:33.953Z,29.93
2019-01-25T13:33:02.645Z,26.23
2019-01-25T13:35:31.253Z,22.90
2019-01-25T13:37:59.786Z,20.77
2019-01-25T13:40:28.875Z,19.50
2019-01-25T13:42:57.353Z,20.60
2019-01-25T13:45:26.065Z,19.73
2019-01-25T13:47:54.695Z,16.07
2019-01-25T13:50:28.048Z,13.17
2019-01-25T13:52:56.624Z,11.07
2019-01-25T13:55:31.036Z,11.00
2019-01-25T13:57:59.467Z,10.90
2019-01-25T14:00:35.240Z,11.60
2019-01-25T14:03:04.124Z,10.90
2019-01-25T14:05:32.629Z,11.50
2019-01-25T14:08:01.096Z,10.73
2019-01-25T14:10:34.953Z,9.73
2019-01-25T14:13:03.651Z,10.07
2019-01-25T14:15:32.519Z,9.40
2019-01-25T14:18:00.975Z,8.73
2019-01-25T14:20:33.738Z,8.83
2019-01-25T14:23:02.207Z,9.50
2019-01-25T14:25:30.911Z,9.90
2019-01-25T14:27:59.457Z,9.37
2019-01-25T14:30:33.374Z,9.60
2019-01-25T14:33:02.170Z,8.30
2019-01-25T14:35:30.829Z,9.30
2019-01-25T14:37:59.515Z,8.37
2019-01-25T14:40:28.249Z,7.80
2019-01-25T14:42:56.851Z,7.83
2019-01-25T14:45:25.455Z,7.80
2019-01-25T14:47:54.004Z,7.00
2019-01-25T14:50:25.159Z,6.37
2019-01-25T14:52:53.732Z,6.27
2019-01-25T14:55:22.359Z,6.30
2019-01-25T14:57:50.986Z,6.07
2019-01-25T15:00:19.641Z,8.00
2019-01-25T15:02:48.096Z,6.67
2019-01-25T15:05:18.404Z,7.50
2019-01-25T15:07:54.730Z,6.47
2019-01-25T15:10:24.744Z,7.50
2019-01-25T15:12:55.432Z,7.60
2019-01-25T15:15:31.184Z,7.17
2019-01-25T15:17:59.696Z,7.00
2019-01-25T15:20:28.595Z,6.80
2019-01-25T15:22:57.228Z,7.77
2019-01-25T15:25:25.670Z,7.50
2019-01-25T15:27:54.433Z,7.40
2019-01-25T15:30:28.449Z,7.57
2019-01-25T15:32:57.986Z,7.77
2019-01-25T15:35:26.652Z,6.33
2019-01-25T15:38:03.927Z,6.30
2019-01-25T15:40:32.877Z,8.07
2019-01-25T15:43:01.371Z,8.40
2019-01-25T15:45:30.016Z,7.70
2019-01-25T15:47:58.755Z,7.10
2019-01-25T15:50:29.249Z,7.07
2019-01-25T15:52:57.845Z,6.20
2019-01-25T15:55:27.215Z,7.03
2019-01-25T15:57:55.909Z,7.00
2019-01-25T16:00:26.570Z,6.63
2019-01-25T16:02:55.113Z,7.93
2019-01-25T16:05:24.806Z,7.20
2019-01-25T16:07:53.361Z,7.63
2019-01-25T16:10:22.630Z,7.00
2019-01-25T16:12:51.878Z,7.40
2019-01-25T16:15:22.899Z,8.20
2019-01-25T16:17:51.588Z,7.10
2019-01-25T16:20:20.413Z,6.40
2019-01-25T16:22:50.992Z,7.83
2019-01-25T16:25:21.669Z,7.47
2019-01-25T16:27:50.199Z,8.63
2019-01-25T16:30:21.572Z,7.10
2019-01-25T16:32:50.046Z,6.90
2019-01-25T16:35:18.631Z,7.60
2019-01-25T16:37:47.236Z,7.87
2019-01-25T16:40:17.867Z,9.20
2019-01-25T16:42:46.329Z,7.80
2019-01-25T16:45:24.107Z,9.30
2019-01-25T16:47:52.578Z,10.40
2019-01-25T16:50:23.807Z,10.53
2019-01-25T16:52:51.375Z,10.73
2019-01-25T16:55:19.881Z,10.00
2019-01-25T16:57:48.379Z,10.63
2019-01-25T17:00:29.714Z,13.33
2019-01-25T17:02:58.216Z,11.47
2019-01-25T17:05:27.135Z,11.73
2019-01-25T17:07:56.669Z,13.20
2019-01-25T17:10:28.631Z,11.73
2019-01-25T17:13:03.431Z,12.03
2019-01-25T17:15:31.900Z,12.57
2019-01-25T17:18:00.414Z,11.90
2019-01-25T17:20:33.932Z,12.53
2019-01-25T17:23:04.983Z,10.63
2019-01-25T17:25:33.467Z,11.40
2019-01-25T17:28:01.974Z,11.27
2019-01-25T17:30:35.239Z,12.03
2019-01-25T17:33:04.016Z,12.57
2019-01-25T17:35:33.195Z,12.70
2019-01-25T17:38:02.515Z,11.90
2019-01-25T17:40:33.712Z,12.13
2019-01-25T17:43:02.155Z,12.20
2019-01-25T17:45:30.671Z,13.10
2019-01-25T17:47:59.123Z,12.67
2019-01-25T17:50:27.623Z,14.17
2019-01-25T17:52:56.080Z,13.90
2019-01-25T17:55:24.840Z,14.73
2019-01-25T17:57:53.374Z,14.93
2019-01-25T18:00:27.661Z,14.37
2019-01-25T18:02:56.198Z,16.40
2019-01-25T18:05:24.776Z,15.20
2019-01-25T18:07:53.228Z,15.57
2019-01-25T18:10:24.017Z,15.60
2019-01-25T18:12:52.636Z,14.77
2019-01-25T18:15:21.307Z,13.70
2019-01-25T18:17:49.765Z,15.97
2019-01-25T18:20:20.884Z,16.60
2019-01-25T18:22:49.393Z,16.27
2019-01-25T18:25:23.800Z,17.27
2019-01-25T18:27:55.664Z,17.50
2019-01-25T18:30:33.527Z,18.57
2019-01-25T18:33:01.970Z,21.83
2019-01-25T18:35:30.584Z,16.43
2019-01-25T18:37:59.292Z,16.50
2019-01-25T18:40:28.472Z,16.10
2019-01-25T18:42:57.001Z,17.70
2019-01-25T18:45:27.038Z,17.80
2019-01-25T18:47:55.536Z,15.90
2019-01-25T18:50:24.055Z,17.50
2019-01-25T18:52:54.433Z,17.97
2019-01-25T18:55:25.051Z,17.77
2019-01-25T18:57:53.656Z,17.77
2019-01-25T19:00:22.651Z,17.20
2019-01-25T19:02:51.267Z,16.27
2019-01-25T19:05:21.879Z,16.67
2019-01-25T19:07:50.509Z,17.07
2019-01-25T19:10:27.734Z,16.47
2019-01-25T19:12:56.354Z,20.48
2019-01-25T19:15:27.436Z,17.87
2019-01-25T19:17:55.969Z,18.27
2019-01-25T19:20:24.622Z,18.43
2019-01-25T19:22:53.617Z,17.90
2019-01-25T19:25:22.176Z,16.30
2019-01-25T19:27:50.740Z,15.90
2019-01-25T19:30:22.503Z,18.47
2019-01-25T19:32:51.007Z,17.03
2019-01-25T19:35:19.648Z,17.70
2019-01-25T19:37:48.153Z,18.50
2019-01-25T19:40:20.355Z,17.27
2019-01-25T19:42:49.276Z,18.00
2019-01-25T19:45:17.973Z,15.77
2019-01-25T19:47:47.397Z,18.23
2019-01-25T19:50:18.763Z,17.50
2019-01-25T19:52:48.002Z,19.37
2019-01-25T19:55:19.185Z,18.03
2019-01-25T19:57:47.792Z,18.80
2019-01-25T20:00:25.445Z,19.17
2019-01-25T20:02:54.175Z,17.97
2019-01-25T20:05:27.527Z,22.30
2019-01-25T20:07:56.090Z,19.83
2019-01-25T20:10:27.636Z,18.53
2019-01-25T20:13:01.920Z,17.30
2019-01-25T20:15:30.503Z,19.27
2019-01-25T20:17:58.983Z,18.63
2019-01-25T20:20:36.405Z,17.93
2019-01-25T20:23:05.620Z,18.80
2019-01-25T20:25:34.233Z,18.57
2019-01-25T20:28:05.336Z,19.90
2019-01-25T20:30:34.118Z,19.10
2019-01-25T20:33:04.417Z,25.53
2019-01-25T20:35:35.216Z,20.80
2019-01-25T20:38:04.030Z,20.03
2019-01-25T20:40:34.636Z,18.83
2019-01-25T20:43:03.169Z,18.10
2019-01-25T20:45:33.879Z,17.20
2019-01-25T20:48:02.675Z,18.53
2019-01-25T20:50:33.151Z,17.70
2019-01-25T20:53:01.780Z,17.43
2019-01-25T20:55:30.387Z,17.50
2019-01-25T20:57:59.376Z,19.90
2019-01-25T21:00:33.563Z,17.90
2019-01-25T21:03:02.396Z,17.47
2019-01-25T21:05:31.438Z,27.83
2019-01-25T21:08:06.029Z,19.30
2019-01-25T21:10:34.833Z,20.00
2019-01-25T21:13:03.415Z,19.00
2019-01-25T21:15:35.303Z,18.13
2019-01-25T21:18:02.287Z,18.43
2019-01-25T21:20:33.295Z,18.00
2019-01-25T21:23:01.895Z,19.60
2019-01-25T21:25:30.483Z,20.47
2019-01-25T21:27:59.960Z,73.77
2019-01-25T21:30:30.824Z,24.90
2019-01-25T21:33:05.825Z,18.67
2019-01-25T21:35:38.334Z,19.47
2019-01-25T21:38:07.117Z,19.90
2019-01-25T21:40:35.897Z,17.27
2019-01-25T21:43:05.666Z,17.53
2019-01-25T21:45:42.703Z,17.93
2019-01-25T21:48:08.442Z,17.83
2019-01-25T21:50:40.134Z,16.87
2019-01-25T21:53:08.842Z,17.90
2019-01-25T21:55:37.652Z,17.03
2019-01-25T21:58:06.467Z,16.00
2019-01-25T22:00:35.932Z,15.77
2019-01-25T22:03:05.632Z,15.80
2019-01-25T22:05:34.216Z,15.97
2019-01-25T22:08:02.920Z,16.80
2019-01-25T22:10:40.195Z,16.50
2019-01-25T22:13:08.789Z,15.60
2019-01-25T22:15:37.305Z,15.97
2019-01-25T22:18:05.982Z,15.90
2019-01-25T22:20:34.443Z,17.30
2019-01-25T22:23:02.892Z,15.97
2019-01-25T22:25:31.483Z,16.83
2019-01-25T22:27:59.999Z,16.77
2019-01-25T22:30:29.727Z,14.63
2019-01-25T22:32:58.329Z,15.80
2019-01-25T22:35:26.947Z,17.07
2019-01-25T22:38:01.113Z,44.10
2019-01-25T22:40:30.725Z,18.03
2019-01-25T22:42:59.368Z,18.20
2019-01-25T22:45:29.579Z,17.97
2019-01-25T22:47:59.102Z,17.10
2019-01-25T22:50:29.627Z,18.30
2019-01-25T22:52:58.171Z,16.27
2019-01-25T22:55:26.905Z,17.37
2019-01-25T22:57:55.425Z,15.40
2019-01-25T23:00:48.152Z,16.10
2019-01-25T23:03:28.800Z,16.10
2019-01-25T23:06:27.982Z,15.97
2019-01-25T23:08:59.848Z,16.47
2019-01-25T23:11:28.354Z,17.80
2019-01-25T23:13:56.875Z,16.50
2019-01-25T23:16:25.321Z,14.90
2019-01-25T23:19:00.575Z,16.00
2019-01-25T23:21:29.083Z,16.53
2019-01-25T23:23:57.636Z,16.37
2019-01-25T23:26:26.208Z,17.00
2019-01-25T23:28:54.666Z,19.77
2019-01-25T23:31:23.156Z,15.97
2019-01-25T23:33:51.763Z,16.30
2019-01-25T23:36:20.211Z,17.33
2019-01-25T23:38:48.678Z,15.17
2019-01-25T23:41:17.135Z,15.97
2019-01-25T23:43:45.576Z,17.17
2019-01-25T23:46:14.153Z,16.57
2019-01-25T23:48:42.651Z,14.17
2019-01-25T23:51:23.026Z,15.43
2019-01-25T23:53:50.567Z,13.87
2019-01-25T23:56:19.017Z,15.43
2019-01-25T23:58:48.324Z,14.30
